Time;durP1;ratioP1;P1;durP2;ratioP2;P2;SDS_P1;SDS_P2;PMS_P1;PMS_P2;Temp;Humidity;BMP_temperature;BMP_pressure;BME280_temperature;BME280_humidity;BME280_pressure;Samples;Min_cycle;Max_cycle;Signal;HPM_P1;HPM_P2
2023/10/21 00:00:48;;;;;;;7.50;4.95;;;;;;;2.20;100.00;98406.19;5158466;27;20051;-59
2023/10/21 00:03:14;;;;;;;8.00;5.70;;;;;;;2.18;100.00;98408.41;5158067;27;20089;-59
2023/10/21 00:05:40;;;;;;;7.82;5.43;;;;;;;2.31;100.00;98404.69;5158185;27;20072;-59
2023/10/21 00:08:06;;;;;;;6.88;4.80;;;;;;;2.27;100.00;98409.16;5157990;27;20046;-59
2023/10/21 00:10:33;;;;;;;10.90;5.93;;;;;;;2.40;100.00;98411.94;5158050;27;20050;-59
2023/10/21 00:12:59;;;;;;;8.85;6.80;;;;;;;2.40;100.00;98411.94;5157996;27;20501;-59
2023/10/21 00:15:25;;;;;;;9.63;6.28;;;;;;;2.34;100.00;98416.75;5157805;27;20090;-59
2023/10/21 00:17:51;;;;;;;7.75;5.25;;;;;;;2.28;100.00;98431.59;5158176;27;20046;-59
2023/10/21 00:20:17;;;;;;;8.43;6.13;;;;;;;2.18;100.00;98427.34;5157861;27;20059;-59
2023/10/21 00:22:44;;;;;;;7.15;5.55;;;;;;;2.08;100.00;98422.31;5158021;27;20440;-59
2023/10/21 00:25:09;;;;;;;10.48;6.85;;;;;;;2.35;100.00;98415.63;5157687;27;20145;-59
2023/10/21 00:27:36;;;;;;;11.32;6.30;;;;;;;2.45;100.00;98419.88;5158151;27;20099;-59
2023/10/21 00:30:02;;;;;;;8.85;6.82;;;;;;;2.26;100.00;98429.19;5157588;27;20162;-60
2023/10/21 00:32:28;;;;;;;8.55;5.75;;;;;;;2.24;100.00;98422.56;5157967;27;20154;-59
2023/10/21 00:34:54;;;;;;;9.43;6.28;;;;;;;2.36;100.00;98425.31;5158347;27;20384;-59
2023/10/21 00:37:20;;;;;;;10.05;6.60;;;;;;;2.13;100.00;98443.75;5161175;27;20078;-59
2023/10/21 00:39:46;;;;;;;7.40;5.57;;;;;;;2.22;100.00;98435.59;5161516;27;20046;-59
2023/10/21 00:42:12;;;;;;;9.23;6.57;;;;;;;2.20;100.00;98437.81;5161168;27;20061;-59
2023/10/21 00:44:38;;;;;;;9.93;6.40;;;;;;;2.23;100.00;98421.75;5161326;27;20228;-59
2023/10/21 00:47:05;;;;;;;11.05;6.95;;;;;;;2.19;100.00;98433.53;5161043;27;20137;-59
2023/10/21 00:49:31;;;;;;;11.38;6.60;;;;;;;2.19;100.00;98444.38;5161358;27;20360;-59
2023/10/21 00:51:58;;;;;;;8.88;6.55;;;;;;;2.02;100.00;98439.84;5161017;27;20057;-60
2023/10/21 00:54:25;;;;;;;8.73;5.90;;;;;;;2.07;100.00;98445.06;5161202;27;20137;-59
2023/10/21 00:56:52;;;;;;;8.68;5.93;;;;;;;2.19;100.00;98437.03;5160970;27;20133;-59
2023/10/21 00:59:18;;;;;;;7.97;5.85;;;;;;;2.33;100.00;98429.50;5161359;27;20292;-59
2023/10/21 01:01:45;;;;;;;7.90;5.25;;;;;;;2.25;100.00;98440.34;5161148;27;20364;-59
2023/10/21 01:04:12;;;;;;;8.43;5.30;;;;;;;2.20;100.00;98443.22;5161034;27;20129;-59
2023/10/21 01:06:38;;;;;;;9.38;6.15;;;;;;;2.11;100.00;98443.28;5160892;27;20095;-59
2023/10/21 01:09:04;;;;;;;9.50;5.63;;;;;;;2.32;100.00;98446.03;5160946;27;20141;-59
2023/10/21 01:11:30;;;;;;;8.25;5.10;;;;;;;2.32;100.00;98456.84;5160761;27;20053;-59
2023/10/21 01:13:56;;;;;;;7.53;5.65;;;;;;;2.42;100.00;98442.16;5160764;27;20051;-60
2023/10/21 01:16:22;;;;;;;6.43;5.25;;;;;;;2.29;100.00;98452.88;5160871;27;20487;-59
2023/10/21 01:18:49;;;;;;;8.85;5.82;;;;;;;2.36;100.00;98436.13;5160690;27;20051;-60
2023/10/21 01:21:15;;;;;;;10.73;6.32;;;;;;;2.33;100.00;98444.91;5161003;27;20110;-59
2023/10/21 01:23:42;;;;;;;7.07;5.88;;;;;;;2.32;100.00;98456.84;5160495;27;20145;-60
2023/10/21 01:26:08;;;;;;;12.55;6.40;;;;;;;2.33;100.00;98461.94;5160970;27;20050;-59
2023/10/21 01:28:34;;;;;;;8.50;6.03;;;;;;;2.27;100.00;98463.25;5160593;27;20050;-60
2023/10/21 01:31:01;;;;;;;8.10;6.32;;;;;;;2.39;100.00;98456.34;5160316;27;20377;-59
2023/10/21 01:33:27;;;;;;;7.18;6.18;;;;;;;2.34;100.00;98474.34;5160789;27;20142;-59
2023/10/21 01:35:53;;;;;;;6.20;4.72;;;;;;;2.03;100.00;98466.56;5160322;27;20487;-60
2023/10/21 01:38:19;;;;;;;9.60;5.97;;;;;;;2.30;100.00;98461.78;5160610;27;20145;-59
2023/10/21 01:40:47;;;;;;;8.13;5.72;;;;;;;2.26;100.00;98461.66;5160263;27;20054;-59
2023/10/21 01:43:12;;;;;;;6.70;4.95;;;;;;;2.35;100.00;98469.72;5160567;27;20047;-59
2023/10/21 01:45:38;;;;;;;6.30;4.40;;;;;;;2.15;100.00;98465.84;5160210;27;20305;-59
2023/10/21 01:48:05;;;;;;;6.57;5.72;;;;;;;2.28;100.00;98456.72;5159327;27;20324;-59
2023/10/21 01:50:31;;;;;;;7.82;5.97;;;;;;;2.32;100.00;98460.34;5160153;27;20134;-59
2023/10/21 01:52:58;;;;;;;10.98;6.65;;;;;;;2.25;100.00;98462.00;5160409;27;20051;-60
2023/10/21 01:55:24;;;;;;;8.60;5.75;;;;;;;2.26;100.00;98458.16;5159799;27;20085;-60
2023/10/21 01:57:51;;;;;;;9.77;6.18;;;;;;;2.45;100.00;98473.97;5160450;27;20142;-60
2023/10/21 02:00:19;;;;;;;12.88;6.20;;;;;;;2.20;100.00;98467.56;5160170;27;20047;-60
2023/10/21 02:02:49;;;;;;;7.38;5.60;;;;;;;2.23;100.00;98488.56;5160335;27;20054;-59
2023/10/21 02:05:15;;;;;;;6.47;5.55;;;;;;;2.35;100.00;98473.22;5159936;27;20059;-59
2023/10/21 02:07:41;;;;;;;10.82;6.20;;;;;;;2.45;100.00;98474.75;5159983;27;20055;-59
2023/10/21 02:10:07;;;;;;;5.75;4.70;;;;;;;2.15;100.00;98476.69;5160079;27;20221;-59
2023/10/21 02:12:33;;;;;;;7.95;5.75;;;;;;;2.29;100.00;98479.94;5159815;27;20133;-59
2023/10/21 02:15:00;;;;;;;5.90;4.53;;;;;;;2.30;100.00;98476.13;5160018;27;20094;-59
2023/10/21 02:17:26;;;;;;;7.15;4.97;;;;;;;2.41;100.00;98478.47;5159688;27;20050;-59
2023/10/21 02:19:53;;;;;;;6.03;5.43;;;;;;;2.33;100.00;98483.59;5160180;27;20281;-58
2023/10/21 02:22:19;;;;;;;7.32;5.47;;;;;;;2.32;100.00;98492.00;5159669;27;20046;-59
2023/10/21 02:24:45;;;;;;;5.70;4.70;;;;;;;2.47;100.00;98479.84;5159994;27;20078;-59
2023/10/21 02:27:12;;;;;;;10.07;5.60;;;;;;;2.33;100.00;98490.88;5159719;27;20057;-59
2023/10/21 02:29:38;;;;;;;6.90;5.60;;;;;;;2.30;100.00;98478.84;5159661;27;20046;-59
2023/10/21 02:32:06;;;;;;;10.10;5.22;;;;;;;2.27;100.00;98484.09;5159628;27;20046;-59
2023/10/21 02:34:32;;;;;;;9.95;6.32;;;;;;;2.22;100.00;98486.97;5159622;27;20054;-59
2023/10/21 02:36:57;;;;;;;9.70;5.82;;;;;;;2.41;100.00;98479.25;5159631;27;20054;-59
2023/10/21 02:39:23;;;;;;;9.98;6.75;;;;;;;2.51;100.00;98488.91;5159369;27;20141;-60
2023/10/21 02:41:50;;;;;;;8.52;5.20;;;;;;;2.39;100.00;98477.97;5159468;27;20308;-59
2023/10/21 02:44:15;;;;;;;7.70;5.18;;;;;;;2.54;100.00;98494.44;5159204;27;20054;-59
2023/10/21 02:46:41;;;;;;;7.10;5.57;;;;;;;2.31;100.00;98490.44;5159893;27;20111;-59
2023/10/21 02:49:08;;;;;;;10.38;5.63;;;;;;;2.42;100.00;98502.47;5159119;27;20141;-60
2023/10/21 02:51:34;;;;;;;10.27;6.07;;;;;;;2.45;100.00;98491.00;5159595;27;20083;-59
2023/10/21 02:54:00;;;;;;;9.50;5.38;;;;;;;2.37;100.00;98494.56;5158946;27;20354;-59
2023/10/21 02:56:26;;;;;;;9.00;5.22;;;;;;;2.48;100.00;98495.75;5158962;27;20398;-60
2023/10/21 02:58:52;;;;;;;10.75;5.45;;;;;;;2.44;100.00;98472.41;5158905;27;20042;-59
2023/10/21 03:01:19;;;;;;;7.32;5.43;;;;;;;2.36;100.00;98480.22;5159225;27;20137;-60
2023/10/21 03:03:46;;;;;;;7.75;6.38;;;;;;;2.57;100.00;98479.47;5159231;27;20477;-60
2023/10/21 03:06:14;;;;;;;6.72;4.60;;;;;;;2.19;100.00;98466.78;5158997;27;20061;-59
2023/10/21 03:08:40;;;;;;;11.27;6.05;;;;;;;2.24;100.00;98477.44;5159243;27;20133;-59
2023/10/21 03:11:07;;;;;;;7.78;5.63;;;;;;;2.48;100.00;98463.28;5159068;27;20141;-60
2023/10/21 03:13:34;;;;;;;6.60;4.78;;;;;;;2.30;100.00;98475.31;5159155;27;20079;-60
2023/10/21 03:16:04;;;;;;;7.20;4.85;;;;;;;2.44;100.00;98464.28;5158721;27;20423;-60
2023/10/21 03:18:30;;;;;;;7.25;5.03;;;;;;;2.23;100.00;98473.16;5159126;27;20053;-60
2023/10/21 03:20:56;;;;;;;7.57;5.18;;;;;;;2.31;100.00;98480.41;5158619;27;20047;-60
2023/10/21 03:23:23;;;;;;;9.55;5.63;;;;;;;2.58;100.00;98479.13;5158977;27;20129;-60
2023/10/21 03:25:54;;;;;;;10.07;5.40;;;;;;;2.36;100.00;98471.31;5158811;27;20059;-59
2023/10/21 03:28:21;;;;;;;9.25;5.63;;;;;;;2.42;100.00;98478.13;5158672;27;20055;-59
2023/10/21 03:30:47;;;;;;;6.40;4.93;;;;;;;2.17;100.00;98471.75;5158772;27;20051;-60
2023/10/21 03:33:13;;;;;;;7.55;5.57;;;;;;;2.46;100.00;98462.00;5158755;27;20070;-59
2023/10/21 03:35:39;;;;;;;7.85;5.45;;;;;;;2.37;100.00;98470.22;5158516;27;20083;-60
2023/10/21 03:38:05;;;;;;;5.70;3.50;;;;;;;2.44;100.00;98475.09;5158286;27;20058;-59
2023/10/21 03:40:33;;;;;;;8.25;5.10;;;;;;;2.44;100.00;98477.81;5158684;27;20130;-60
2023/10/21 03:42:59;;;;;;;7.45;5.22;;;;;;;2.43;100.00;98487.00;5158259;27;20142;-59
2023/10/21 03:45:25;;;;;;;7.00;4.50;;;;;;;2.35;100.00;98475.94;5158694;27;20050;-59
2023/10/21 03:47:51;;;;;;;7.53;4.93;;;;;;;2.30;100.00;98486.94;5158228;27;20058;-59
2023/10/21 03:50:17;;;;;;;10.20;5.50;;;;;;;2.51;100.00;98483.47;5158653;27;20051;-60
2023/10/21 03:52:43;;;;;;;8.80;5.10;;;;;;;2.43;100.00;98485.09;5158379;27;20117;-59
2023/10/21 03:55:09;;;;;;;7.45;5.50;;;;;;;2.54;100.00;98470.09;5158328;27;20058;-60
2023/10/21 03:57:36;;;;;;;7.43;4.63;;;;;;;2.54;100.00;98472.78;5158118;27;20412;-60
2023/10/21 04:00:04;;;;;;;8.60;4.75;;;;;;;2.38;100.00;98471.00;5158002;27;20487;-59
2023/10/21 04:02:31;;;;;;;7.75;5.30;;;;;;;2.25;100.00;98475.50;5158338;27;20093;-60
2023/10/21 04:04:57;;;;;;;9.07;5.35;;;;;;;2.39;100.00;98475.28;5158107;27;20154;-59
2023/10/21 04:07:23;;;;;;;8.13;5.35;;;;;;;2.40;100.00;98476.84;5158154;27;20412;-60
2023/10/21 04:09:52;;;;;;;10.32;5.47;;;;;;;2.51;100.00;98469.97;5159997;27;20354;-60
2023/10/21 04:12:18;;;;;;;8.35;5.47;;;;;;;2.48;100.00;98486.84;5165350;27;20043;-60
2023/10/21 04:14:45;;;;;;;8.63;6.30;;;;;;;2.46;100.00;98475.53;5164672;27;20058;-60
2023/10/21 04:17:11;;;;;;;9.32;5.32;;;;;;;2.48;100.00;98481.44;5165252;27;20074;-60
2023/10/21 04:19:37;;;;;;;7.93;5.70;;;;;;;2.76;100.00;98492.53;5164669;27;20072;-60
2023/10/21 04:22:03;;;;;;;11.65;6.57;;;;;;;2.61;100.00;98490.44;5164917;27;20093;-60
2023/10/21 04:24:30;;;;;;;7.18;5.13;;;;;;;2.57;100.00;98503.81;5164684;27;20054;-60
2023/10/21 04:26:55;;;;;;;10.88;5.80;;;;;;;2.56;100.00;98499.50;5164861;27;20146;-60
2023/10/21 04:29:21;;;;;;;7.10;4.90;;;;;;;2.60;100.00;98514.00;5164831;27;20084;-60
2023/10/21 04:31:48;;;;;;;7.75;5.03;;;;;;;2.55;100.00;98519.59;5164548;27;20528;-60
2023/10/21 04:34:14;;;;;;;8.60;5.10;;;;;;;2.53;100.00;98532.63;5165077;27;20051;-59
2023/10/21 04:36:40;;;;;;;8.00;5.80;;;;;;;2.62;100.00;98519.84;5164569;27;20070;-60
2023/10/21 04:39:07;;;;;;;10.50;5.55;;;;;;;2.65;100.00;98521.91;5164869;27;20142;-60
2023/10/21 04:41:33;;;;;;;9.07;5.43;;;;;;;2.67;100.00;98521.59;5164332;27;20057;-59
2023/10/21 04:43:59;;;;;;;5.20;3.83;;;;;;;2.62;100.00;98517.16;5164810;27;20043;-60
2023/10/21 04:46:25;;;;;;;13.80;6.63;;;;;;;2.58;100.00;98529.75;5164425;27;20467;-59
2023/10/21 04:48:51;;;;;;;8.32;5.30;;;;;;;2.66;100.00;98518.06;5164680;27;20167;-60
2023/10/21 04:51:19;;;;;;;9.15;5.13;;;;;;;2.75;100.00;98539.69;5164457;27;20043;-60
2023/10/21 04:53:45;;;;;;;13.35;5.95;;;;;;;2.85;100.00;98523.06;5163979;27;20050;-60
2023/10/21 04:56:10;;;;;;;11.27;5.63;;;;;;;2.69;100.00;98532.88;5164456;27;20086;-60
2023/10/21 04:58:36;;;;;;;8.85;5.28;;;;;;;2.75;100.00;98537.75;5164318;27;20077;-60
2023/10/21 05:01:03;;;;;;;9.02;5.28;;;;;;;2.83;100.00;98539.63;5164221;27;20088;-60
2023/10/21 05:03:29;;;;;;;10.05;5.32;;;;;;;3.03;100.00;98538.06;5164168;27;20054;-60
2023/10/21 05:05:56;;;;;;;9.07;5.20;;;;;;;2.78;100.00;98549.84;5164409;27;20415;-60
2023/10/21 05:08:21;;;;;;;9.25;6.05;;;;;;;2.94;100.00;98567.13;5164210;27;20061;-60
2023/10/21 05:10:48;;;;;;;8.77;4.90;;;;;;;2.91;100.00;98562.34;5164566;27;20050;-59
2023/10/21 05:13:16;;;;;;;12.18;5.40;;;;;;;2.89;100.00;98575.41;5163874;27;20107;-60
2023/10/21 05:15:42;;;;;;;8.40;4.65;;;;;;;2.81;100.00;98582.47;5164406;27;20137;-60
2023/10/21 05:18:08;;;;;;;5.25;3.95;;;;;;;2.68;100.00;98585.41;5164085;27;20430;-60
2023/10/21 05:20:34;;;;;;;8.52;5.32;;;;;;;2.89;100.00;98569.22;5163888;27;20060;-60
2023/10/21 05:23:00;;;;;;;7.03;5.05;;;;;;;2.86;100.00;98586.91;5160775;27;20359;-60
2023/10/21 05:25:26;;;;;;;14.88;5.78;;;;;;;3.00;100.00;98573.09;5160613;27;20133;-60
2023/10/21 05:27:52;;;;;;;9.35;5.38;;;;;;;2.98;100.00;98578.88;5160687;27;20129;-60
2023/10/21 05:30:18;;;;;;;9.82;4.88;;;;;;;2.95;100.00;98589.56;5160503;27;20078;-60
2023/10/21 05:32:44;;;;;;;8.10;5.63;;;;;;;3.19;100.00;98607.88;5160848;27;20138;-60
2023/10/21 05:35:10;;;;;;;10.27;6.25;;;;;;;3.09;100.00;98608.25;5160252;27;20412;-60
2023/10/21 05:37:36;;;;;;;7.88;4.32;;;;;;;2.98;100.00;98614.06;5160580;27;20152;-60
2023/10/21 05:40:04;;;;;;;9.18;6.03;;;;;;;3.07;100.00;98627.56;5160174;27;20061;-60
2023/10/21 05:42:30;;;;;;;7.35;5.28;;;;;;;3.22;100.00;98634.31;5160646;27;20047;-60
2023/10/21 05:44:56;;;;;;;9.48;5.93;;;;;;;3.22;100.00;98634.31;5160149;27;20137;-60
2023/10/21 05:47:22;;;;;;;8.20;5.50;;;;;;;3.11;100.00;98642.03;5160694;27;20357;-60
2023/10/21 05:49:48;;;;;;;10.32;7.38;;;;;;;3.11;100.00;98647.44;5160311;27;20165;-60
2023/10/21 05:52:14;;;;;;;11.90;5.70;;;;;;;3.05;100.00;98663.09;5160201;27;20057;-60
2023/10/21 05:54:40;;;;;;;12.60;6.63;;;;;;;3.22;100.00;98658.69;5160196;27;20115;-60
2023/10/21 05:57:07;;;;;;;7.82;5.60;;;;;;;3.02;100.00;98671.06;5160074;27;20047;-60
2023/10/21 05:59:33;;;;;;;10.85;5.05;;;;;;;3.28;100.00;98679.84;5160119;27;20137;-60
2023/10/21 06:01:59;;;;;;;8.52;5.72;;;;;;;3.05;100.00;98695.59;5159992;27;20057;-60
2023/10/21 06:04:25;;;;;;;9.40;6.10;;;;;;;3.34;100.00;98682.38;5160213;27;20061;-60
2023/10/21 06:06:54;;;;;;;6.95;5.32;;;;;;;3.22;100.00;98693.91;5159869;27;20200;-60
2023/10/21 06:09:20;;;;;;;10.32;5.13;;;;;;;3.10;100.00;98700.03;5160215;27;20270;-60
2023/10/21 06:11:46;;;;;;;7.85;5.68;;;;;;;3.14;100.00;98694.75;5159957;27;20054;-60
2023/10/21 06:14:12;;;;;;;10.02;6.35;;;;;;;3.37;100.00;98690.63;5159593;27;20093;-60
2023/10/21 06:16:38;;;;;;;8.60;5.00;;;;;;;3.22;100.00;98713.66;5159486;27;20053;-60
2023/10/21 06:19:04;;;;;;;11.75;5.65;;;;;;;3.23;100.00;98712.56;5159502;27;20046;-60
2023/10/21 06:21:30;;;;;;;8.05;5.93;;;;;;;3.19;100.00;98729.78;5159596;27;20400;-60
2023/10/21 06:23:56;;;;;;;9.32;6.43;;;;;;;3.19;100.00;98714.31;5159689;27;20130;-60
2023/10/21 06:26:22;;;;;;;8.40;6.18;;;;;;;3.11;100.00;98722.50;5159547;27;20196;-60
2023/10/21 06:28:48;;;;;;;8.52;5.90;;;;;;;3.19;100.00;98710.81;5159567;27;20145;-60
2023/10/21 06:31:15;;;;;;;8.30;6.05;;;;;;;3.27;100.00;98728.94;5159547;27;20053;-60
2023/10/21 06:33:41;;;;;;;6.88;5.15;;;;;;;3.14;100.00;98719.94;5158896;27;20404;-60
2023/10/21 06:36:07;;;;;;;9.77;6.88;;;;;;;3.30;100.00;98725.59;5159681;27;20099;-60
2023/10/21 06:38:33;;;;;;;10.95;6.60;;;;;;;3.20;100.00;98737.59;5159339;27;20069;-60
2023/10/21 06:40:59;;;;;;;8.40;5.25;;;;;;;3.41;100.00;98720.59;5159518;27;20467;-60
2023/10/21 06:43:25;;;;;;;10.35;6.93;;;;;;;3.41;100.00;98729.50;5159342;27;20047;-60
2023/10/21 06:45:52;;;;;;;7.78;5.43;;;;;;;3.42;100.00;98733.00;5159802;27;20145;-60
2023/10/21 06:48:19;;;;;;;11.20;6.85;;;;;;;3.23;100.00;98750.47;5159164;27;20073;-60
2023/10/21 06:50:44;;;;;;;11.45;6.72;;;;;;;3.27;100.00;98745.19;5159307;27;20331;-60
2023/10/21 06:53:10;;;;;;;9.52;6.45;;;;;;;3.20;100.00;98755.72;5159039;27;20146;-60
2023/10/21 06:55:41;;;;;;;11.98;7.28;;;;;;;3.21;100.00;98758.13;5158833;27;20057;-60
2023/10/21 06:58:07;;;;;;;10.80;6.82;;;;;;;3.19;100.00;98768.47;5159174;27;20050;-60
2023/10/21 07:00:33;;;;;;;9.93;5.80;;;;;;;3.20;100.00;98751.13;5158956;27;20057;-60
2023/10/21 07:02:59;;;;;;;8.70;6.25;;;;;;;3.31;100.00;98748.84;5159145;27;20324;-60
2023/10/21 07:05:25;;;;;;;9.85;6.18;;;;;;;3.12;100.00;98746.53;5158651;27;20496;-60
2023/10/21 07:07:51;;;;;;;9.75;7.15;;;;;;;3.40;100.00;98756.91;5159247;27;20050;-60
2023/10/21 07:10:17;;;;;;;12.30;7.05;;;;;;;3.54;100.00;98733.88;5158626;27;20142;-60
2023/10/21 07:12:43;;;;;;;8.00;5.38;;;;;;;3.47;100.00;98757.22;5159059;27;20061;-60
2023/10/21 07:15:09;;;;;;;11.52;6.78;;;;;;;3.56;100.00;98768.78;5158436;27;20327;-60
2023/10/21 07:17:36;;;;;;;9.10;7.15;;;;;;;3.50;100.00;98773.59;5158466;27;20061;-60
2023/10/21 07:20:04;;;;;;;10.82;6.57;;;;;;;3.59;100.00;98783.59;5158741;27;20149;-60
2023/10/21 07:22:31;;;;;;;6.55;5.10;;;;;;;3.51;100.00;98796.09;5158630;27;20047;-60
2023/10/21 07:24:58;;;;;;;10.00;6.90;;;;;;;3.48;100.00;98808.38;5158506;27;20339;-61
2023/10/21 07:27:24;;;;;;;12.20;7.35;;;;;;;3.58;100.00;98790.16;5158547;27;20137;-60
2023/10/21 07:29:50;;;;;;;13.10;7.35;;;;;;;3.57;100.00;98794.78;5158690;27;20137;-60
2023/10/21 07:32:16;;;;;;;10.38;6.70;;;;;;;3.49;100.00;98801.03;5158618;27;20050;-61
2023/10/21 07:34:42;;;;;;;10.27;7.03;;;;;;;3.48;100.00;98794.03;5158718;27;20074;-60
2023/10/21 07:37:08;;;;;;;8.88;6.00;;;;;;;3.60;100.00;98804.97;5158351;27;20405;-60
2023/10/21 07:39:35;;;;;;;11.48;7.00;;;;;;;3.61;100.00;98813.91;5158762;27;20043;-60
2023/10/21 07:42:02;;;;;;;9.38;7.28;;;;;;;3.69;100.00;98804.91;5158122;27;20232;-60
2023/10/21 07:44:28;;;;;;;9.50;6.20;;;;;;;3.59;100.00;98799.84;5157550;27;20107;-60
2023/10/21 07:46:54;;;;;;;9.25;5.47;;;;;;;3.72;100.00;98788.78;5158153;27;20495;-60
2023/10/21 07:49:20;;;;;;;9.73;6.03;;;;;;;3.82;100.00;98803.09;5158093;27;20051;-60
2023/10/21 07:51:46;;;;;;;10.27;6.47;;;;;;;3.65;100.00;98829.16;5158408;27;20145;-60
2023/10/21 07:54:13;;;;;;;11.38;7.15;;;;;;;3.84;100.00;98830.69;5158175;27;20046;-60
2023/10/21 07:56:39;;;;;;;9.60;6.13;;;;;;;3.85;100.00;98830.34;5158388;27;20201;-60
2023/10/21 07:59:05;;;;;;;6.45;5.25;;;;;;;4.01;100.00;98842.19;5157864;27;20052;-61
2023/10/21 08:01:31;;;;;;;13.98;5.85;;;;;;;3.74;100.00;98850.81;5158277;27;20102;-61
2023/10/21 08:03:57;;;;;;;9.35;6.85;;;;;;;3.97;100.00;98826.94;5157969;27;20116;-60
2023/10/21 08:06:23;;;;;;;8.57;5.60;;;;;;;3.74;100.00;98831.84;5158225;27;20289;-60
2023/10/21 08:08:49;;;;;;;8.90;6.50;;;;;;;3.74;100.00;98823.72;5157737;27;20050;-60
2023/10/21 08:11:15;;;;;;;7.95;5.03;;;;;;;3.57;100.00;98818.38;5158248;27;20047;-60
2023/10/21 08:13:42;;;;;;;8.95;5.95;;;;;;;3.90;100.00;98819.31;5157806;27;20332;-60
2023/10/21 08:16:08;;;;;;;7.88;5.85;;;;;;;3.60;100.00;98821.25;5157638;27;20482;-60
2023/10/21 08:18:35;;;;;;;8.75;6.30;;;;;;;3.81;100.00;98791.44;5157955;27;20081;-60
2023/10/21 08:21:01;;;;;;;11.23;6.50;;;;;;;3.96;100.00;98792.78;5157945;27;20058;-60
2023/10/21 08:23:27;;;;;;;15.20;7.28;;;;;;;3.93;100.00;98790.72;5157868;27;20042;-59
2023/10/21 08:25:54;;;;;;;15.38;6.35;;;;;;;3.83;100.00;98802.75;5157786;27;20066;-60
2023/10/21 08:28:20;;;;;;;8.73;5.63;;;;;;;3.86;100.00;98823.78;5157824;27;20046;-60
2023/10/21 08:30:46;;;;;;;9.43;6.18;;;;;;;3.84;100.00;98820.63;5157782;27;20057;-60
2023/10/21 08:33:12;;;;;;;11.98;7.00;;;;;;;3.91;100.00;98803.81;5158014;27;20051;-60
2023/10/21 08:35:38;;;;;;;11.55;5.95;;;;;;;3.81;100.00;98794.16;5157463;27;20460;-60
2023/10/21 08:38:04;;;;;;;9.48;6.40;;;;;;;3.98;100.00;98791.31;5157909;27;20046;-60
2023/10/21 08:40:30;;;;;;;9.63;6.35;;;;;;;3.97;100.00;98803.31;5157382;27;20051;-59
2023/10/21 08:43:00;;;;;;;9.60;5.88;;;;;;;3.83;100.00;98796.53;5158144;27;20141;-60
2023/10/21 08:45:26;;;;;;;9.30;6.05;;;;;;;3.96;100.00;98822.59;5157673;27;20072;-60
2023/10/21 08:47:56;;;;;;;7.18;4.43;;;;;;;3.79;100.00;98809.94;5157321;27;20054;-60
2023/10/21 08:50:22;;;;;;;11.43;6.57;;;;;;;4.01;100.00;98800.72;5157456;27;20074;-60
2023/10/21 08:52:50;;;;;;;12.80;6.93;;;;;;;4.21;100.00;98799.94;5157279;27;20047;-60
2023/10/21 08:55:16;;;;;;;9.45;6.05;;;;;;;4.00;100.00;98791.00;5157370;27;20149;-60
2023/10/21 08:57:42;;;;;;;10.25;6.53;;;;;;;4.00;100.00;98791.78;5160589;27;20137;-60
2023/10/21 09:00:10;;;;;;;9.07;6.63;;;;;;;3.82;100.00;98792.22;5161054;27;20101;-60
2023/10/21 09:02:36;;;;;;;22.52;6.32;;;;;;;3.93;100.00;98798.84;5160788;27;20420;-60
2023/10/21 09:05:09;;;;;;;8.82;6.07;;;;;;;3.98;100.00;98779.69;5161164;27;20050;-60
2023/10/21 09:07:44;;;;;;;9.48;5.95;;;;;;;4.03;100.00;98776.75;5160598;27;20046;-60
2023/10/21 09:10:10;;;;;;;10.00;6.72;;;;;;;4.03;100.00;98781.38;5160357;27;20046;-60
2023/10/21 09:12:38;;;;;;;15.52;6.43;;;;;;;4.15;100.00;98790.41;5160424;27;20058;-60
2023/10/21 09:15:05;;;;;;;8.18;5.15;;;;;;;3.89;100.00;98806.84;5160351;27;20047;-60
2023/10/21 09:17:35;;;;;;;12.27;7.38;;;;;;;4.03;100.00;98806.59;5160742;27;20047;-60
2023/10/21 09:20:01;;;;;;;8.85;6.80;;;;;;;4.09;100.00;98793.63;5160548;27;20190;-60
2023/10/21 09:22:28;;;;;;;11.15;7.35;;;;;;;4.11;100.00;98805.75;5160562;27;20130;-60
2023/10/21 09:25:14;;;;;;;16.15;6.57;;;;;;;4.14;100.00;98809.72;5160360;27;20055;-61
2023/10/21 09:27:40;;;;;;;15.18;6.53;;;;;;;4.09;100.00;98808.00;5160365;27;20047;-60
2023/10/21 09:30:12;;;;;;;9.70;6.80;;;;;;;4.24;100.00;98817.47;5160328;27;20057;-60
2023/10/21 09:32:38;;;;;;;10.27;6.75;;;;;;;4.07;100.00;98831.16;5160512;27;20046;-60
2023/10/21 09:35:17;;;;;;;9.35;6.15;;;;;;;4.10;100.00;98833.19;5160374;27;20057;-60
2023/10/21 09:37:43;;;;;;;7.78;5.88;;;;;;;4.12;100.00;98831.75;5160414;27;20096;-61
2023/10/21 09:40:10;;;;;;;11.73;7.18;;;;;;;4.28;100.00;98828.47;5160166;27;20416;-60
2023/10/21 09:42:38;;;;;;;7.13;4.95;;;;;;;4.25;100.00;98830.69;5160283;27;20054;-60
2023/10/21 09:45:05;;;;;;;13.20;6.57;;;;;;;4.15;100.00;98822.16;5160465;27;20047;-60
2023/10/21 09:47:36;;;;;;;10.18;6.70;;;;;;;4.27;100.00;98814.09;5160069;27;20062;-60
2023/10/21 09:50:09;;;;;;;10.40;5.88;;;;;;;4.12;100.00;98807.34;5160422;27;20071;-60
2023/10/21 09:52:42;;;;;;;10.93;6.50;;;;;;;4.22;100.00;98804.22;5159975;27;20061;-60
2023/10/21 09:55:11;;;;;;;10.18;6.32;;;;;;;4.27;100.00;98807.88;5160096;27;20106;-61
2023/10/21 09:57:37;;;;;;;9.10;5.45;;;;;;;4.14;100.00;98793.44;5159907;27;20055;-61
2023/10/21 10:00:06;;;;;;;9.77;5.70;;;;;;;4.20;100.00;98814.63;5160129;27;20172;-60
2023/10/21 10:02:34;;;;;;;7.63;5.20;;;;;;;4.24;100.00;98801.19;5159904;27;20384;-60
2023/10/21 10:05:06;;;;;;;12.77;6.25;;;;;;;4.22;100.00;98801.50;5159898;27;20310;-60
2023/10/21 10:07:33;;;;;;;14.90;6.75;;;;;;;4.38;100.00;98806.34;5159111;27;20051;-60
2023/10/21 10:10:01;;;;;;;9.15;5.97;;;;;;;4.52;100.00;98827.78;5159566;27;20051;-60
2023/10/21 10:12:34;;;;;;;8.90;4.78;;;;;;;4.31;100.00;98839.44;5160062;27;20106;-60
2023/10/21 10:15:20;;;;;;;8.27;5.63;;;;;;;4.48;100.00;98852.09;5159614;27;20087;-60
2023/10/21 10:17:47;;;;;;;9.93;6.13;;;;;;;4.43;100.00;98860.41;5159407;27;20141;-60
2023/10/21 10:20:18;;;;;;;10.73;5.97;;;;;;;4.49;100.00;98870.75;5159860;27;20058;-61
2023/10/21 10:22:44;;;;;;;8.75;5.05;;;;;;;4.43;100.00;98873.97;5159663;27;20077;-61
2023/10/21 10:25:10;;;;;;;10.40;6.28;;;;;;;4.67;100.00;98882.28;5159728;27;20082;-60
2023/10/21 10:27:40;;;;;;;12.05;6.32;;;;;;;4.61;100.00;98901.81;5159493;27;20114;-60
2023/10/21 10:30:14;;;;;;;8.68;5.65;;;;;;;4.52;100.00;98922.78;5159719;27;20061;-60
2023/10/21 10:32:43;;;;;;;9.27;5.75;;;;;;;4.63;100.00;98930.22;5159613;27;20047;-60
2023/10/21 10:35:10;;;;;;;8.93;5.38;;;;;;;4.77;100.00;98956.31;5159417;27;20042;-60
2023/10/21 10:37:51;;;;;;;9.93;6.20;;;;;;;4.42;100.00;98957.34;5159009;27;20046;-60
2023/10/21 10:40:18;;;;;;;7.05;4.63;;;;;;;4.61;100.00;98945.25;5159094;27;20046;-60
2023/10/21 10:42:45;;;;;;;8.40;5.22;;;;;;;4.69;100.00;98947.09;5159111;27;20042;-60
2023/10/21 10:45:12;;;;;;;10.80;5.97;;;;;;;4.61;100.00;98956.91;5159275;27;20060;-60
2023/10/21 10:47:40;;;;;;;10.23;5.72;;;;;;;4.55;100.00;98974.50;5159327;27;20046;-61
2023/10/21 10:50:12;;;;;;;8.40;4.95;;;;;;;4.49;100.00;98975.81;5159041;27;20376;-60
2023/10/21 10:52:39;;;;;;;7.82;5.88;;;;;;;4.52;100.00;98986.03;5159087;27;20430;-60
2023/10/21 10:55:08;;;;;;;6.53;4.78;;;;;;;4.74;100.00;98965.13;5158859;27;20050;-61
2023/10/21 10:57:34;;;;;;;9.38;5.53;;;;;;;4.82;100.00;98983.28;5159296;27;20054;-60
2023/10/21 11:00:03;;;;;;;8.02;4.90;;;;;;;4.68;100.00;98995.19;5158738;27;20412;-61
2023/10/21 11:02:41;;;;;;;10.40;6.38;;;;;;;4.71;100.00;98994.53;5159157;27;20046;-60
2023/10/21 11:05:08;;;;;;;10.98;6.68;;;;;;;4.79;100.00;99025.47;5158758;27;20057;-60
2023/10/21 11:07:35;;;;;;;7.82;5.63;;;;;;;4.80;100.00;99031.69;5158882;27;20046;-60
2023/10/21 11:10:02;;;;;;;9.57;5.28;;;;;;;4.73;100.00;99043.06;5158538;27;20107;-61
2023/10/21 11:12:28;;;;;;;7.70;5.40;;;;;;;4.90;100.00;99039.47;5158479;27;20051;-60
2023/10/21 11:14:54;;;;;;;7.38;5.07;;;;;;;4.97;100.00;99028.88;5159039;27;20061;-60
2023/10/21 11:17:21;;;;;;;7.75;5.43;;;;;;;4.96;100.00;99049.00;5158592;27;20050;-60
2023/10/21 11:19:47;;;;;;;7.90;5.00;;;;;;;4.83;100.00;99067.16;5158910;27;20142;-60
2023/10/21 11:22:19;;;;;;;9.73;5.35;;;;;;;4.88;100.00;99074.31;5158623;27;20054;-60
2023/10/21 11:24:45;;;;;;;6.90;5.60;;;;;;;5.00;100.00;99079.84;5159055;27;20204;-60
2023/10/21 11:27:12;;;;;;;5.60;4.35;;;;;;;4.85;100.00;99088.53;5158441;27;20475;-60
2023/10/21 11:29:38;;;;;;;7.50;5.45;;;;;;;4.80;100.00;99089.53;5158634;27;20110;-61